createdAt,value
2023-03-22T00:02:17.338Z,74.10
2023-03-22T00:04:45.677Z,76.70
2023-03-22T00:07:13.887Z,75.20
2023-03-22T00:09:42.166Z,74.10
2023-03-22T00:12:10.465Z,80.70
2023-03-22T00:14:38.755Z,80.50
2023-03-22T00:17:06.994Z,73.30
2023-03-22T00:19:35.256Z,79.60
2023-03-22T00:22:06.234Z,72.00
2023-03-22T00:24:34.628Z,72.30
2023-03-22T00:27:03.495Z,77.00
2023-03-22T00:29:31.781Z,74.50
2023-03-22T00:32:00.173Z,74.10
2023-03-22T00:34:32.157Z,71.10
2023-03-22T00:37:01.533Z,71.70
2023-03-22T00:39:30.103Z,71.30
2023-03-22T00:41:58.365Z,73.10
2023-03-22T00:44:27.099Z,77.90
2023-03-22T00:46:55.456Z,75.00
2023-03-22T00:49:25.606Z,82.00
2023-03-22T00:51:54.824Z,71.20
2023-03-22T00:54:23.091Z,72.00
2023-03-22T00:56:51.339Z,66.70
2023-03-22T00:59:19.735Z,69.30
2023-03-22T01:01:48.038Z,73.30
2023-03-22T01:04:25.790Z,65.10
2023-03-22T01:07:00.707Z,72.10
2023-03-22T01:09:33.787Z,62.90
2023-03-22T01:12:03.700Z,68.50
2023-03-22T01:14:31.899Z,68.20
2023-03-22T01:17:00.328Z,67.10
2023-03-22T01:19:29.016Z,77.20
2023-03-22T01:21:57.840Z,75.40
2023-03-22T01:24:26.535Z,73.30
2023-03-22T01:26:54.944Z,78.50
2023-03-22T01:29:24.012Z,73.20
2023-03-22T01:31:52.622Z,77.00
2023-03-22T01:34:22.307Z,69.70
2023-03-22T01:36:51.013Z,67.80
2023-03-22T01:39:19.536Z,71.40
2023-03-22T01:41:48.751Z,69.70
2023-03-22T01:44:20.431Z,70.90
2023-03-22T01:46:50.998Z,69.40
2023-03-22T01:49:32.012Z,73.00
2023-03-22T01:52:09.236Z,68.30
2023-03-22T01:54:57.829Z,65.40
2023-03-22T01:57:46.368Z,70.90
2023-03-22T02:00:22.526Z,64.30
2023-03-22T02:03:07.385Z,68.10
2023-03-22T02:05:39.681Z,69.10
2023-03-22T02:08:09.425Z,64.70
2023-03-22T02:11:04.787Z,68.60
2023-03-22T02:17:19.395Z,74.40
2023-03-22T02:20:04.778Z,72.20
2023-03-22T02:22:58.344Z,69.70
2023-03-22T02:25:48.386Z,71.30
2023-03-22T02:28:59.590Z,74.50
2023-03-22T02:31:52.843Z,68.30
2023-03-22T02:34:36.189Z,66.30
2023-03-22T02:37:22.568Z,69.70
2023-03-22T02:40:03.934Z,69.10
2023-03-22T02:43:04.735Z,70.60
2023-03-22T02:45:55.328Z,66.40
2023-03-22T02:48:32.531Z,64.50
2023-03-22T02:51:23.839Z,68.70
2023-03-22T02:54:08.705Z,67.90
2023-03-22T02:56:41.211Z,76.50
2023-03-22T02:59:13.075Z,71.30
2023-03-22T03:01:46.199Z,67.30
2023-03-22T03:04:19.725Z,64.00
2023-03-22T03:06:51.833Z,60.20
2023-03-22T03:09:21.293Z,65.10
2023-03-22T03:11:52.091Z,68.80
2023-03-22T03:14:29.391Z,56.00
2023-03-22T03:17:21.435Z,58.30
2023-03-22T03:20:31.092Z,56.10
2023-03-22T03:23:05.059Z,57.60
2023-03-22T03:25:44.352Z,58.90
2023-03-22T03:28:23.093Z,60.10
2023-03-22T03:31:34.823Z,59.20
2023-03-22T03:34:05.910Z,53.80
2023-03-22T03:36:37.986Z,54.90
2023-03-22T03:39:11.045Z,55.50
2023-03-22T03:41:42.353Z,54.00
2023-03-22T03:44:11.616Z,55.40
2023-03-22T03:46:40.927Z,55.20
2023-03-22T03:49:12.692Z,51.50
2023-03-22T03:51:52.550Z,54.40
2023-03-22T03:54:21.382Z,57.10
2023-03-22T03:56:49.935Z,56.90
2023-03-22T03:59:19.105Z,53.90
2023-03-22T04:01:52.759Z,60.70
2023-03-22T04:04:29.952Z,59.60
2023-03-22T04:07:04.007Z,65.10
2023-03-22T04:09:35.301Z,78.60
2023-03-22T04:12:23.813Z,70.70
2023-03-22T04:15:12.208Z,67.30
2023-03-22T04:17:41.595Z,76.60
2023-03-22T04:20:12.484Z,67.70
2023-03-22T04:22:42.300Z,61.10
2023-03-22T04:25:13.485Z,72.80
2023-03-22T04:27:51.333Z,77.40
2023-03-22T04:30:20.668Z,73.80
2023-03-22T04:33:07.663Z,80.20
2023-03-22T04:35:59.491Z,79.90
2023-03-22T04:38:33.168Z,87.70
2023-03-22T04:41:01.715Z,95.70
2023-03-22T04:43:39.452Z,87.10
2023-03-22T04:46:13.001Z,88.20
2023-03-22T04:48:47.865Z,86.90
2023-03-22T04:51:17.101Z,88.20
2023-03-22T04:53:54.996Z,87.60
2023-03-22T04:56:23.932Z,81.60
2023-03-22T04:58:52.725Z,86.80
2023-03-22T05:01:21.136Z,82.60
2023-03-22T05:03:53.656Z,80.20
2023-03-22T05:06:23.304Z,83.20
2023-03-22T05:08:58.801Z,81.40
2023-03-22T05:11:28.185Z,81.60
2023-03-22T05:14:08.417Z,79.60
2023-03-22T05:16:37.182Z,78.70
2023-03-22T05:19:06.781Z,78.50
2023-03-22T05:21:36.980Z,78.20
2023-03-22T05:24:07.103Z,74.50
2023-03-22T05:26:38.086Z,73.20
2023-03-22T05:29:06.494Z,74.90
2023-03-22T05:31:46.589Z,76.50
2023-03-22T05:34:15.275Z,75.00
2023-03-22T05:36:43.730Z,71.90
2023-03-22T05:39:23.164Z,73.20
2023-03-22T05:41:51.840Z,79.10
2023-03-22T05:44:20.297Z,75.30
2023-03-22T05:47:14.671Z,75.50
2023-03-22T05:49:53.998Z,80.90
2023-03-22T05:52:24.010Z,78.40
2023-03-22T05:55:07.447Z,74.10
2023-03-22T05:57:36.178Z,71.90
2023-03-22T06:00:15.147Z,73.40
2023-03-22T06:02:56.381Z,74.00
2023-03-22T06:05:25.455Z,72.70
2023-03-22T06:07:53.954Z,74.80
2023-03-22T06:10:24.298Z,72.90
2023-03-22T06:12:53.893Z,71.60
2023-03-22T06:15:26.393Z,69.90
2023-03-22T06:18:03.274Z,69.20
2023-03-22T06:20:35.477Z,69.00
2023-03-22T06:23:08.998Z,76.10
2023-03-22T06:25:37.694Z,65.30
2023-03-22T06:28:08.589Z,69.20
2023-03-22T06:30:38.499Z,63.80
2023-03-22T06:33:36.944Z,70.10
2023-03-22T06:36:12.070Z,67.50
2023-03-22T06:38:51.022Z,64.90
2023-03-22T06:41:19.364Z,66.50
2023-03-22T06:43:47.570Z,63.50
2023-03-22T06:46:31.634Z,63.60
2023-03-22T06:49:07.983Z,59.90
2023-03-22T06:51:36.520Z,57.90
2023-03-22T06:54:05.032Z,59.40
2023-03-22T06:56:33.402Z,57.60
2023-03-22T06:59:02.489Z,53.50
2023-03-22T07:01:31.089Z,59.40
2023-03-22T07:03:59.631Z,56.60
2023-03-22T07:06:28.737Z,53.60
2023-03-22T07:08:57.032Z,51.70
2023-03-22T07:11:28.480Z,52.10
2023-03-22T07:14:03.967Z,51.00
2023-03-22T07:16:48.929Z,47.70
2023-03-22T07:19:19.025Z,51.50
2023-03-22T07:21:47.827Z,51.70
2023-03-22T07:24:16.460Z,46.60
2023-03-22T07:26:46.586Z,46.10
2023-03-22T07:29:18.397Z,42.00
2023-03-22T07:31:46.802Z,43.00
2023-03-22T07:34:23.299Z,39.00
2023-03-22T07:37:03.076Z,40.20
2023-03-22T07:39:31.896Z,39.60
2023-03-22T07:42:00.355Z,36.30
2023-03-22T07:44:54.157Z,40.20
2023-03-22T07:47:39.644Z,32.40
2023-03-22T07:50:32.019Z,32.00
2023-03-22T07:53:01.577Z,34.50
2023-03-22T07:55:30.092Z,34.60
2023-03-22T07:57:58.398Z,33.60
2023-03-22T08:00:27.192Z,33.80
2023-03-22T08:03:02.263Z,33.40
2023-03-22T08:05:51.754Z,31.70
2023-03-22T08:08:20.771Z,29.50
2023-03-22T08:10:50.820Z,31.60
2023-03-22T08:13:19.308Z,33.20
2023-03-22T08:15:47.681Z,34.30
2023-03-22T08:18:16.023Z,32.80
2023-03-22T08:20:45.801Z,31.10
2023-03-22T08:23:20.112Z,32.10
2023-03-22T08:25:51.181Z,37.00
2023-03-22T08:28:20.298Z,31.50
2023-03-22T08:30:49.360Z,36.20
2023-03-22T08:33:21.983Z,33.10
2023-03-22T08:35:51.267Z,33.00
2023-03-22T08:38:20.983Z,28.30
2023-03-22T08:40:52.115Z,29.80
2023-03-22T08:43:23.251Z,27.70
2023-03-22T08:45:53.448Z,28.50
2023-03-22T08:48:22.224Z,25.80
2023-03-22T08:51:08.211Z,26.80
2023-03-22T08:53:47.373Z,25.30
2023-03-22T08:56:44.768Z,27.50
2023-03-22T08:59:21.837Z,23.50
2023-03-22T09:02:16.430Z,24.60
2023-03-22T09:04:45.063Z,23.50
2023-03-22T09:07:13.389Z,21.40
2023-03-22T09:09:43.501Z,20.50
2023-03-22T09:12:12.670Z,22.20
2023-03-22T09:14:41.237Z,22.10
2023-03-22T09:17:10.003Z,21.20
2023-03-22T09:19:38.303Z,21.10
2023-03-22T09:22:07.087Z,21.50
2023-03-22T09:24:42.604Z,15.30
2023-03-22T09:27:10.857Z,18.60
2023-03-22T09:29:39.095Z,15.80
2023-03-22T09:32:11.192Z,16.00
2023-03-22T09:34:40.747Z,16.10
2023-03-22T09:37:09.375Z,14.50
2023-03-22T09:39:49.353Z,14.90
2023-03-22T09:42:42.338Z,15.30
2023-03-22T09:45:15.395Z,17.60
2023-03-22T09:47:55.892Z,19.60
2023-03-22T09:50:28.468Z,17.20
2023-03-22T09:52:58.475Z,17.20
2023-03-22T09:56:17.130Z,17.20
2023-03-22T09:59:00.045Z,20.80
2023-03-22T10:01:47.043Z,16.70
2023-03-22T10:04:46.142Z,18.00
2023-03-22T10:07:21.052Z,16.00
2023-03-22T10:09:55.848Z,12.60
2023-03-22T10:12:32.277Z,13.20
2023-03-22T10:15:15.467Z,10.60
2023-03-22T10:17:52.261Z,11.20
2023-03-22T10:20:42.542Z,8.80
2023-03-22T10:23:16.872Z,7.30
2023-03-22T10:25:46.202Z,9.60
2023-03-22T10:28:26.844Z,8.10
2023-03-22T10:30:57.333Z,9.90
2023-03-22T10:33:39.095Z,7.60
2023-03-22T10:36:13.653Z,7.60
2023-03-22T10:38:53.180Z,7.00
2023-03-22T10:41:24.936Z,6.20
2023-03-22T10:44:00.807Z,8.40
2023-03-22T10:46:36.967Z,8.10
2023-03-22T10:49:07.420Z,7.20
2023-03-22T10:51:49.671Z,5.80
2023-03-22T10:54:24.613Z,7.10
2023-03-22T10:56:54.482Z,4.30
2023-03-22T10:59:47.439Z,8.00
2023-03-22T11:02:20.516Z,4.70
2023-03-22T11:04:50.802Z,5.40
2023-03-22T11:07:42.818Z,5.30
2023-03-22T11:10:11.077Z,6.60
2023-03-22T11:12:55.261Z,6.70
2023-03-22T11:15:31.196Z,6.20
2023-03-22T11:18:04.726Z,5.80
2023-03-22T11:20:34.516Z,7.20
2023-03-22T11:23:06.999Z,6.10
2023-03-22T11:25:38.297Z,7.10
2023-03-22T11:28:22.618Z,7.80
2023-03-22T11:31:08.543Z,10.10
2023-03-22T11:33:37.603Z,6.60
2023-03-22T11:36:17.439Z,7.90
2023-03-22T11:38:47.357Z,7.80
2023-03-22T11:41:22.322Z,9.30
2023-03-22T11:43:56.966Z,6.10
2023-03-22T11:46:25.736Z,8.50
2023-03-22T11:49:01.442Z,7.60
2023-03-22T11:51:35.129Z,8.70
2023-03-22T11:54:30.509Z,8.00
2023-03-22T11:57:02.849Z,5.60
2023-03-22T11:59:39.002Z,6.10
2023-03-22T12:02:16.311Z,6.30
2023-03-22T12:04:49.116Z,8.60
2023-03-22T12:07:21.571Z,7.50
2023-03-22T12:09:58.964Z,7.40
2023-03-22T12:12:34.580Z,6.30
2023-03-22T12:15:08.476Z,6.40
2023-03-22T12:17:44.006Z,6.40
2023-03-22T12:20:27.390Z,6.70
2023-03-22T12:22:56.724Z,7.10
2023-03-22T12:25:36.695Z,5.50
2023-03-22T12:28:18.469Z,7.70
2023-03-22T12:30:49.559Z,5.90
2023-03-22T12:33:33.713Z,8.10
2023-03-22T12:36:05.420Z,8.70
2023-03-22T12:38:42.821Z,5.80
2023-03-22T12:41:25.359Z,9.60
2023-03-22T12:44:01.234Z,9.00
2023-03-22T12:46:40.167Z,9.20
2023-03-22T12:49:28.082Z,7.10
2023-03-22T12:52:06.155Z,7.20
2023-03-22T12:54:35.606Z,7.30
2023-03-22T12:57:04.776Z,4.50
2023-03-22T12:59:33.141Z,8.30
2023-03-22T13:02:15.712Z,6.10
2023-03-22T13:04:43.866Z,6.40
2023-03-22T13:07:15.361Z,7.70
2023-03-22T13:09:48.890Z,7.40
2023-03-22T13:12:17.307Z,5.50
2023-03-22T13:15:31.557Z,6.70
2023-03-22T13:18:31.785Z,8.80
2023-03-22T13:21:22.799Z,8.10
2023-03-22T13:23:54.070Z,4.80
2023-03-22T13:26:47.422Z,5.50
2023-03-22T13:29:38.133Z,6.20
2023-03-22T13:32:33.447Z,4.90
2023-03-22T13:35:01.866Z,6.70
2023-03-22T13:37:37.581Z,6.10
2023-03-22T13:40:38.012Z,5.70
2023-03-22T13:43:15.579Z,7.60
2023-03-22T13:46:05.074Z,5.00
2023-03-22T13:48:47.287Z,5.80
2023-03-22T13:51:22.037Z,10.60
2023-03-22T13:54:24.015Z,5.00
2023-03-22T13:56:53.329Z,7.90
2023-03-22T13:59:27.841Z,5.60
2023-03-22T14:01:59.204Z,6.80
2023-03-22T14:04:40.639Z,9.40
2023-03-22T14:07:40.290Z,5.70
2023-03-22T14:10:47.015Z,4.70
2023-03-22T14:13:29.472Z,4.60
2023-03-22T14:16:06.411Z,6.80
2023-03-22T14:18:39.360Z,8.50
2023-03-22T14:21:13.874Z,11.10
